Time;durP1;ratioP1;P1;durP2;ratioP2;P2;SDS_P1;SDS_P2;PMS_P1;PMS_P2;Temp;Humidity;BMP_temperature;BMP_pressure;BME280_temperature;BME280_humidity;BME280_pressure;Samples;Min_cycle;Max_cycle;Signal;HPM_P1;HPM_P2
2023/08/02 00:01:16;;;;;;;2.25;1.40;;;16.10;99.90;;;;;;4977175;28;20186;-90
2023/08/02 00:03:41;;;;;;;2.85;1.30;;;16.10;99.90;;;;;;4944018;28;20228;-88
2023/08/02 00:06:07;;;;;;;3.42;1.17;;;16.10;99.90;;;;;;4959630;28;20183;-89
2023/08/02 00:08:33;;;;;;;1.55;1.30;;;16.10;99.90;;;;;;4975589;28;20183;-88
2023/08/02 00:10:59;;;;;;;2.72;1.17;;;16.10;99.90;;;;;;4976343;28;20182;-88
2023/08/02 00:13:24;;;;;;;2.78;1.48;;;16.10;99.90;;;;;;4977694;28;20194;-89
2023/08/02 00:15:52;;;;;;;4.65;1.35;;;16.10;99.90;;;;;;4979226;28;20186;-88
2023/08/02 00:18:17;;;;;;;1.35;1.13;;;16.10;99.90;;;;;;4980751;28;20178;-89
2023/08/02 00:20:44;;;;;;;3.15;1.27;;;16.20;99.90;;;;;;4976833;28;20186;-88
2023/08/02 00:23:10;;;;;;;1.38;1.15;;;16.10;99.90;;;;;;4959851;28;20573;-87
2023/08/02 00:25:35;;;;;;;1.77;1.20;;;16.20;99.90;;;;;;4967553;28;20270;-87
2023/08/02 00:28:01;;;;;;;1.60;1.02;;;16.10;99.90;;;;;;4975079;28;20190;-87
2023/08/02 00:30:30;;;;;;;1.67;1.35;;;16.10;99.90;;;;;;4975075;28;20552;-88
2023/08/02 00:32:55;;;;;;;3.92;1.60;;;16.10;99.90;;;;;;4976531;28;20648;-88
2023/08/02 00:35:21;;;;;;;1.50;1.38;;;16.10;99.90;;;;;;4976972;28;20183;-88
2023/08/02 00:37:46;;;;;;;2.08;1.45;;;16.10;99.90;;;;;;4975676;28;20178;-87
2023/08/02 00:40:12;;;;;;;3.25;1.52;;;16.10;99.90;;;;;;4975981;28;20186;-87
2023/08/02 00:42:38;;;;;;;2.58;1.48;;;16.10;99.90;;;;;;4975813;28;20718;-89
2023/08/02 00:45:04;;;;;;;1.92;1.50;;;16.10;99.90;;;;;;4955904;28;20187;-89
2023/08/02 00:47:32;;;;;;;2.35;1.48;;;16.20;99.90;;;;;;4976231;28;20183;-89
2023/08/02 00:49:57;;;;;;;2.00;1.45;;;16.10;99.90;;;;;;4977146;28;20654;-88
2023/08/02 00:52:24;;;;;;;2.72;1.20;;;16.10;99.90;;;;;;4958778;28;20242;-89
2023/08/02 00:54:50;;;;;;;1.90;1.50;;;16.10;99.90;;;;;;4942500;28;20297;-88
2023/08/02 00:57:16;;;;;;;2.60;1.60;;;16.10;99.90;;;;;;4942808;28;20190;-89
2023/08/02 00:59:42;;;;;;;2.53;1.38;;;16.10;99.90;;;;;;4974719;28;20627;-89
2023/08/02 01:02:08;;;;;;;2.88;1.73;;;16.10;99.90;;;;;;4971338;28;20212;-90
2023/08/02 01:04:34;;;;;;;2.15;1.58;;;16.00;99.90;;;;;;4974610;28;20190;-88
2023/08/02 01:07:07;;;;;;;1.92;1.60;;;16.10;99.90;;;;;;4958507;28;20597;-89
2023/08/02 01:09:41;;;;;;;7.20;1.77;;;16.10;99.90;;;;;;4974607;28;20202;-89
2023/08/02 01:12:09;;;;;;;2.38;1.50;;;16.00;99.90;;;;;;4974036;28;20586;-88
2023/08/02 01:14:39;;;;;;;2.45;1.55;;;16.10;99.90;;;;;;4966454;28;20183;-88
2023/08/02 01:17:06;;;;;;;3.58;1.85;;;16.00;99.90;;;;;;4975961;28;20659;-88
2023/08/02 01:19:32;;;;;;;2.78;1.60;;;16.10;99.90;;;;;;4958461;28;20182;-88
2023/08/02 01:21:58;;;;;;;1.75;1.58;;;16.10;99.90;;;;;;4968371;28;20186;-89
2023/08/02 01:24:34;;;;;;;2.25;1.55;;;16.10;99.90;;;;;;4973974;28;20190;-89
2023/08/02 01:27:07;;;;;;;3.05;1.88;;;16.10;99.90;;;;;;4974978;28;20261;-89
2023/08/02 01:29:36;;;;;;;3.35;1.92;;;16.10;99.90;;;;;;4973292;28;20195;-88
2023/08/02 01:32:03;;;;;;;3.97;2.25;;;16.20;99.90;;;;;;4973809;28;20210;-89
2023/08/02 01:34:30;;;;;;;2.13;1.58;;;16.10;99.90;;;;;;4973090;28;20178;-88
2023/08/02 01:36:56;;;;;;;4.82;1.52;;;16.10;99.90;;;;;;4975521;28;20740;-89
2023/08/02 01:39:22;;;;;;;3.22;1.80;;;16.10;99.90;;;;;;4974420;28;20179;-88
2023/08/02 01:41:47;;;;;;;2.42;1.58;;;16.10;99.90;;;;;;4957923;28;20579;-88
2023/08/02 01:44:13;;;;;;;6.10;2.03;;;16.10;99.90;;;;;;4975198;28;20250;-88
2023/08/02 01:46:39;;;;;;;2.35;1.88;;;16.20;99.90;;;;;;4974472;28;20179;-88
2023/08/02 01:49:04;;;;;;;3.17;2.00;;;16.10;99.90;;;;;;4974174;28;20679;-88
2023/08/02 01:51:30;;;;;;;3.00;1.95;;;16.10;99.90;;;;;;4958256;28;20316;-88
2023/08/02 01:53:56;;;;;;;2.30;1.63;;;16.10;99.90;;;;;;4975867;28;20179;-88
2023/08/02 01:56:21;;;;;;;2.53;1.90;;;16.10;99.90;;;;;;4958448;28;20182;-88
2023/08/02 01:58:47;;;;;;;2.35;1.60;;;16.10;99.90;;;;;;4967813;28;20187;-88
2023/08/02 02:01:13;;;;;;;3.90;2.22;;;16.10;99.90;;;;;;4976046;28;20174;-88
2023/08/02 02:03:38;;;;;;;3.38;1.92;;;16.10;99.90;;;;;;4974039;28;20265;-89
2023/08/02 02:06:04;;;;;;;3.53;1.83;;;16.10;99.90;;;;;;4970661;28;20241;-89
2023/08/02 02:08:30;;;;;;;3.20;2.00;;;16.10;99.90;;;;;;4958496;28;20614;-88
2023/08/02 02:10:55;;;;;;;2.67;2.10;;;16.00;99.90;;;;;;4974828;28;20171;-88
2023/08/02 02:13:24;;;;;;;3.35;1.95;;;16.10;99.90;;;;;;4959336;28;20198;-89
2023/08/02 02:15:50;;;;;;;3.35;1.85;;;16.00;99.90;;;;;;4975412;28;20216;-88
2023/08/02 02:18:16;;;;;;;4.03;2.10;;;16.10;99.90;;;;;;4972914;28;20270;-89
2023/08/02 02:20:42;;;;;;;3.45;1.88;;;16.10;99.90;;;;;;4959298;28;20237;-88
2023/08/02 02:23:08;;;;;;;3.00;2.05;;;16.00;99.90;;;;;;4976293;28;20205;-89
2023/08/02 02:25:34;;;;;;;3.13;1.83;;;16.00;99.90;;;;;;4975303;28;20170;-88
2023/08/02 02:27:59;;;;;;;3.42;1.90;;;16.00;99.90;;;;;;4974580;28;20236;-88
2023/08/02 02:30:25;;;;;;;3.72;1.95;;;16.10;99.90;;;;;;4974308;28;20261;-88
2023/08/02 02:32:52;;;;;;;2.78;1.88;;;16.10;99.90;;;;;;4978063;28;20666;-88
2023/08/02 02:35:18;;;;;;;3.55;2.25;;;16.10;99.90;;;;;;4979725;28;20183;-88
2023/08/02 02:37:44;;;;;;;3.85;2.20;;;16.10;99.90;;;;;;4962813;28;20237;-88
2023/08/02 02:40:10;;;;;;;2.55;1.75;;;16.10;99.90;;;;;;4960105;28;20193;-89
2023/08/02 02:42:40;;;;;;;2.85;1.67;;;16.10;99.90;;;;;;4982736;28;20210;-88
2023/08/02 02:45:07;;;;;;;6.55;2.08;;;16.10;99.90;;;;;;4976564;28;20179;-88
2023/08/02 02:47:33;;;;;;;2.88;2.30;;;15.90;99.90;;;;;;4998290;28;20227;-87
2023/08/02 02:49:58;;;;;;;4.72;2.28;;;16.00;99.90;;;;;;4993067;28;20162;-88
2023/08/02 02:52:24;;;;;;;4.35;1.95;;;16.00;99.90;;;;;;4980413;28;20258;-89
2023/08/02 02:54:50;;;;;;;2.78;1.80;;;16.00;99.90;;;;;;4982954;28;20653;-88
2023/08/02 02:57:16;;;;;;;3.92;2.13;;;16.00;99.90;;;;;;4984126;28;20186;-91
2023/08/02 02:59:42;;;;;;;2.83;2.00;;;16.00;99.90;;;;;;4997722;28;20174;-89
2023/08/02 03:02:08;;;;;;;3.15;2.33;;;16.00;99.90;;;;;;4994337;28;20171;-89
2023/08/02 03:04:33;;;;;;;3.30;2.28;;;16.00;99.90;;;;;;4982099;28;20185;-88
2023/08/02 03:06:59;;;;;;;4.13;2.30;;;16.00;99.90;;;;;;4997616;28;20179;-89
2023/08/02 03:09:25;;;;;;;5.35;2.38;;;16.00;99.90;;;;;;4980213;28;20714;-88
2023/08/02 03:11:50;;;;;;;4.22;2.42;;;16.00;99.90;;;;;;4976861;28;20186;-87
2023/08/02 03:14:16;;;;;;;3.88;2.72;;;16.00;99.90;;;;;;4972536;28;20186;-86
2023/08/02 03:16:43;;;;;;;5.78;2.63;;;16.10;99.90;;;;;;4976549;28;20177;-86
2023/08/02 03:19:09;;;;;;;4.88;2.83;;;16.00;99.90;;;;;;4974538;28;20198;-88
2023/08/02 03:21:35;;;;;;;4.40;2.83;;;16.00;99.90;;;;;;4958996;28;20195;-87
2023/08/02 03:24:00;;;;;;;4.47;2.70;;;16.00;99.90;;;;;;4956884;28;20219;-87
2023/08/02 03:26:26;;;;;;;2.88;2.10;;;16.00;99.90;;;;;;4941506;28;20551;-86
2023/08/02 03:28:51;;;;;;;3.63;2.50;;;16.00;99.90;;;;;;4956928;28;20640;-88
2023/08/02 03:31:17;;;;;;;6.35;3.28;;;15.90;99.90;;;;;;4955474;28;20189;-88
2023/08/02 03:33:43;;;;;;;6.35;3.38;;;16.00;99.90;;;;;;4964352;28;20202;-88
2023/08/02 03:36:08;;;;;;;4.55;3.00;;;15.90;99.90;;;;;;4959571;28;20646;-89
2023/08/02 03:38:34;;;;;;;9.20;3.22;;;16.00;99.90;;;;;;4961559;28;20204;-89
2023/08/02 03:41:00;;;;;;;6.72;3.50;;;16.00;99.90;;;;;;4985533;28;20186;-87
2023/08/02 03:43:25;;;;;;;7.30;2.90;;;16.00;99.90;;;;;;4981783;28;20646;-90
2023/08/02 03:45:51;;;;;;;6.35;3.22;;;16.10;99.90;;;;;;4960289;28;20190;-88
2023/08/02 03:48:17;;;;;;;7.40;3.35;;;16.00;99.90;;;;;;4958111;28;20187;-91
2023/08/02 03:50:43;;;;;;;6.07;3.17;;;16.00;99.90;;;;;;4963246;28;20667;-87
2023/08/02 03:53:09;;;;;;;5.53;3.33;;;16.00;99.90;;;;;;4962324;28;20241;-92
2023/08/02 03:55:34;;;;;;;5.78;2.72;;;16.00;99.90;;;;;;4976613;28;20186;-89
2023/08/02 03:58:00;;;;;;;4.85;3.08;;;16.00;99.90;;;;;;4975668;28;20201;-90
2023/08/02 04:00:26;;;;;;;5.38;3.08;;;16.00;99.90;;;;;;4945926;28;20187;-91
2023/08/02 04:02:51;;;;;;;4.45;3.08;;;16.00;99.90;;;;;;4961212;28;20271;-92
2023/08/02 04:05:19;;;;;;;5.75;3.10;;;16.00;99.90;;;;;;4975728;28;20238;-89
2023/08/02 04:07:45;;;;;;;5.20;3.35;;;16.00;99.90;;;;;;4975877;28;20190;-88
2023/08/02 04:10:11;;;;;;;5.20;3.72;;;16.10;99.90;;;;;;4942999;28;20269;-88
2023/08/02 04:12:36;;;;;;;5.93;3.22;;;16.10;99.90;;;;;;4940242;28;20281;-87
2023/08/02 04:15:03;;;;;;;5.05;3.15;;;16.00;99.90;;;;;;4969804;28;20187;-88
2023/08/02 04:17:29;;;;;;;4.55;2.90;;;16.00;99.90;;;;;;4955756;28;20188;-88
2023/08/02 04:19:54;;;;;;;5.68;3.85;;;16.00;99.90;;;;;;4972223;28;20206;-89
2023/08/02 04:22:20;;;;;;;5.72;3.40;;;16.10;99.90;;;;;;4975347;28;20268;-87
2023/08/02 04:24:47;;;;;;;6.93;3.13;;;16.00;99.90;;;;;;4976454;28;20230;-90
2023/08/02 04:27:12;;;;;;;4.00;3.30;;;16.00;99.90;;;;;;4977277;28;20210;-88
2023/08/02 04:29:38;;;;;;;6.22;3.30;;;16.10;99.90;;;;;;4974289;28;20652;-86
2023/08/02 04:32:04;;;;;;;5.43;3.25;;;16.10;99.90;;;;;;4975688;28;20593;-87
2023/08/02 04:34:30;;;;;;;6.60;3.65;;;16.00;99.90;;;;;;4974240;28;20661;-86
2023/08/02 04:36:56;;;;;;;5.80;3.50;;;16.00;99.90;;;;;;4955313;29;20278;-89
2023/08/02 04:39:21;;;;;;;7.32;3.40;;;16.10;99.90;;;;;;4975367;28;20534;-86
2023/08/02 04:41:50;;;;;;;5.28;2.78;;;16.00;99.90;;;;;;4956001;28;20187;-86
2023/08/02 04:44:16;;;;;;;5.10;3.25;;;16.10;99.90;;;;;;4958424;28;20222;-91
2023/08/02 04:46:41;;;;;;;5.20;3.40;;;16.10;99.90;;;;;;4967985;28;20307;-89
2023/08/02 04:49:07;;;;;;;4.75;3.50;;;16.10;99.90;;;;;;4953832;28;20296;-91
2023/08/02 04:51:36;;;;;;;5.85;2.78;;;16.10;99.90;;;;;;4955971;28;20306;-89
2023/08/02 04:54:02;;;;;;;3.58;2.95;;;16.10;99.90;;;;;;4967131;28;20194;-88
2023/08/02 04:56:27;;;;;;;6.28;3.47;;;16.10;99.90;;;;;;4974455;28;20735;-87
2023/08/02 04:58:53;;;;;;;3.75;3.22;;;16.10;99.90;;;;;;4942995;28;20273;-87
2023/08/02 05:01:19;;;;;;;4.93;3.35;;;16.10;99.90;;;;;;4973703;28;20273;-87
2023/08/02 05:03:45;;;;;;;6.53;3.17;;;16.00;99.90;;;;;;4941948;28;20582;-86
2023/08/02 05:06:10;;;;;;;6.70;3.53;;;16.10;99.90;;;;;;4974848;28;20233;-90
2023/08/02 05:08:36;;;;;;;6.60;4.20;;;16.10;99.90;;;;;;4974483;28;20183;-86
2023/08/02 05:11:06;;;;;;;5.75;3.45;;;16.10;99.90;;;;;;4940749;28;20194;-87
2023/08/02 05:13:35;;;;;;;5.05;3.50;;;16.10;99.90;;;;;;4956184;28;20210;-91
2023/08/02 05:16:01;;;;;;;5.95;3.38;;;16.10;99.90;;;;;;4993826;28;20182;-86
2023/08/02 05:18:26;;;;;;;6.25;3.22;;;16.10;99.90;;;;;;4979611;28;20189;-86
2023/08/02 05:20:53;;;;;;;5.60;3.47;;;16.10;99.90;;;;;;4946202;28;20199;-88
2023/08/02 05:23:19;;;;;;;5.38;4.22;;;16.10;99.90;;;;;;4955872;28;20207;-87
2023/08/02 05:25:45;;;;;;;5.15;3.53;;;16.20;99.90;;;;;;4974637;28;20237;-88
2023/08/02 05:28:10;;;;;;;6.70;4.07;;;16.20;99.90;;;;;;4974617;28;20218;-87
2023/08/02 05:30:37;;;;;;;6.50;4.18;;;16.20;99.90;;;;;;4975391;28;20178;-89
2023/08/02 05:33:06;;;;;;;7.20;3.80;;;16.20;99.90;;;;;;4975463;28;20725;-88
2023/08/02 05:35:32;;;;;;;4.78;3.40;;;16.30;99.90;;;;;;4975766;28;20698;-90
2023/08/02 05:37:58;;;;;;;6.00;3.85;;;16.30;99.90;;;;;;4974446;28;20187;-89
2023/08/02 05:40:23;;;;;;;8.52;4.47;;;16.40;99.90;;;;;;4962985;28;20197;-89
2023/08/02 05:42:49;;;;;;;10.10;5.50;;;16.40;99.90;;;;;;4964430;28;20202;-90
2023/08/02 05:45:15;;;;;;;8.32;3.95;;;16.80;99.90;;;;;;4940814;29;20544;-89
2023/08/02 05:47:41;;;;;;;8.07;4.15;;;16.40;99.90;;;;;;4967031;28;20183;-88
2023/08/02 05:50:07;;;;;;;6.40;4.55;;;16.50;99.90;;;;;;4969040;28;20197;-88
2023/08/02 05:52:33;;;;;;;5.68;4.05;;;16.50;99.90;;;;;;4955928;28;20234;-89
2023/08/02 05:54:58;;;;;;;6.43;4.28;;;16.50;99.90;;;;;;4967947;28;20573;-89
2023/08/02 05:57:24;;;;;;;6.32;4.53;;;16.50;99.90;;;;;;4951941;28;20693;-89
2023/08/02 05:59:50;;;;;;;7.00;4.80;;;16.50;99.90;;;;;;4959832;28;20183;-87
2023/08/02 06:02:15;;;;;;;6.95;4.38;;;16.60;99.90;;;;;;4949055;28;20187;-86
2023/08/02 06:04:44;;;;;;;8.88;4.32;;;16.60;99.90;;;;;;4965862;28;20185;-91
2023/08/02 06:07:12;;;;;;;5.63;4.30;;;16.60;99.90;;;;;;4956223;28;20269;-90
2023/08/02 06:09:40;;;;;;;6.45;4.30;;;16.60;99.90;;;;;;4957278;28;20171;-90
2023/08/02 06:12:09;;;;;;;6.53;3.83;;;16.70;99.90;;;;;;4940294;28;20179;-90
2023/08/02 06:14:35;;;;;;;11.77;5.18;;;16.70;99.90;;;;;;4957544;28;20175;-89
2023/08/02 06:17:01;;;;;;;9.05;5.18;;;16.70;99.90;;;;;;4965794;28;20241;-89
2023/08/02 06:19:26;;;;;;;9.40;5.82;;;16.80;99.90;;;;;;4957738;28;20321;-90
2023/08/02 06:21:52;;;;;;;12.43;5.35;;;16.80;99.90;;;;;;4950374;28;20183;-90
2023/08/02 06:24:17;;;;;;;6.80;4.60;;;16.80;99.90;;;;;;4954914;28;20298;-89
2023/08/02 06:26:43;;;;;;;7.40;4.32;;;16.80;99.90;;;;;;4938676;29;20246;-89
2023/08/02 06:29:11;;;;;;;11.45;5.53;;;16.80;99.90;;;;;;4955960;29;20188;-90
2023/08/02 06:31:36;;;;;;;6.28;4.05;;;16.90;99.90;;;;;;4956786;29;20184;-88
2023/08/02 06:34:02;;;;;;;5.82;4.25;;;16.90;99.90;;;;;;4955242;29;20175;-90
2023/08/02 06:36:28;;;;;;;4.85;3.55;;;16.90;99.90;;;;;;4942621;28;20591;-90
2023/08/02 06:38:53;;;;;;;7.82;4.15;;;16.90;99.90;;;;;;4959719;28;20187;-89
2023/08/02 06:41:19;;;;;;;5.72;3.60;;;17.10;99.90;;;;;;4974133;28;20189;-89
2023/08/02 06:43:45;;;;;;;7.07;4.07;;;17.10;99.90;;;;;;4936395;28;20626;-89
2023/08/02 06:46:11;;;;;;;5.30;3.72;;;17.10;99.90;;;;;;4938779;28;20204;-91
2023/08/02 06:48:36;;;;;;;5.22;3.60;;;17.10;99.90;;;;;;4953824;29;20668;-91
2023/08/02 06:51:05;;;;;;;5.68;4.30;;;17.20;99.90;;;;;;4960951;28;20182;-91
2023/08/02 06:53:31;;;;;;;5.20;3.95;;;17.30;99.90;;;;;;4963240;28;20250;-90
2023/08/02 06:55:57;;;;;;;6.05;3.70;;;17.60;99.90;;;;;;4937940;29;20183;-89
2023/08/02 06:58:23;;;;;;;4.15;3.38;;;17.30;99.90;;;;;;4954288;28;20199;-90
2023/08/02 07:00:48;;;;;;;5.28;3.70;;;17.40;99.90;;;;;;4953286;28;20188;-91
2023/08/02 07:03:14;;;;;;;5.53;3.70;;;17.60;99.90;;;;;;4954180;28;20274;-92
2023/08/02 07:05:40;;;;;;;5.63;3.70;;;17.60;99.90;;;;;;4957948;28;20186;-93
2023/08/02 07:08:06;;;;;;;6.03;3.42;;;17.60;99.90;;;;;;4958176;28;20190;-92
2023/08/02 07:10:32;;;;;;;6.80;4.45;;;18.40;99.90;;;;;;4956796;28;20191;-92
2023/08/02 07:12:58;;;;;;;4.47;3.25;;;17.20;99.90;;;;;;4973102;28;20187;-90
2023/08/02 07:15:24;;;;;;;4.80;3.13;;;17.70;99.90;;;;;;4973496;28;20183;-91
2023/08/02 07:17:49;;;;;;;7.68;3.40;;;18.10;99.90;;;;;;4974344;28;20266;-91
2023/08/02 07:20:15;;;;;;;5.68;3.65;;;17.80;99.90;;;;;;4973366;28;20187;-89
2023/08/02 07:22:43;;;;;;;8.10;3.13;;;17.90;99.90;;;;;;4975872;28;20712;-89
2023/08/02 07:25:09;;;;;;;3.50;3.10;;;17.90;99.90;;;;;;4976302;28;20210;-90
2023/08/02 07:27:36;;;;;;;5.63;3.45;;;17.90;99.90;;;;;;4977761;28;20214;-89
2023/08/02 07:30:03;;;;;;;8.18;2.53;;;17.90;99.90;;;;;;4977397;28;20178;-90
2023/08/02 07:32:30;;;;;;;4.65;3.00;;;17.80;99.90;;;;;;4975963;28;20535;-89
2023/08/02 07:34:57;;;;;;;7.13;3.13;;;17.90;99.90;;;;;;4960139;28;20531;-88
2023/08/02 07:37:23;;;;;;;5.65;3.47;;;17.90;99.90;;;;;;4974450;28;20599;-89
2023/08/02 07:39:49;;;;;;;4.88;3.40;;;17.90;99.90;;;;;;4959718;28;20194;-89
2023/08/02 07:42:15;;;;;;;5.50;2.97;;;17.90;99.90;;;;;;4959576;28;20241;-89
2023/08/02 07:44:41;;;;;;;6.00;3.30;;;18.00;99.90;;;;;;4960513;28;20217;-90
2023/08/02 07:47:06;;;;;;;4.15;2.97;;;18.10;99.90;;;;;;4972312;28;20210;-90
2023/08/02 07:49:32;;;;;;;5.38;3.10;;;18.20;99.90;;;;;;4959361;28;20696;-89
2023/08/02 07:51:59;;;;;;;4.13;2.88;;;18.30;99.90;;;;;;4977411;28;20581;-89
2023/08/02 07:54:24;;;;;;;4.07;2.83;;;18.40;99.90;;;;;;4943608;28;20191;-88
2023/08/02 07:56:50;;;;;;;3.90;3.20;;;18.40;99.90;;;;;;4960149;28;20183;-90
2023/08/02 07:59:16;;;;;;;5.00;2.80;;;18.50;99.90;;;;;;4959644;28;20219;-89
2023/08/02 08:01:42;;;;;;;4.95;2.95;;;18.50;99.90;;;;;;4943355;28;20233;-89
2023/08/02 08:04:08;;;;;;;4.55;3.25;;;18.50;99.90;;;;;;4959596;28;20228;-88
2023/08/02 08:06:34;;;;;;;7.32;3.00;;;18.60;99.90;;;;;;4977090;28;20179;-89
2023/08/02 08:08:59;;;;;;;4.00;3.03;;;18.80;99.90;;;;;;4955083;28;20178;-89
2023/08/02 08:11:29;;;;;;;7.90;2.60;;;18.80;99.90;;;;;;4975451;28;20233;-89
2023/08/02 08:13:55;;;;;;;5.00;2.80;;;18.70;99.90;;;;;;4975374;28;20269;-88
2023/08/02 08:16:21;;;;;;;4.35;2.50;;;18.70;99.90;;;;;;4975498;28;20190;-90
2023/08/02 08:18:47;;;;;;;6.70;2.58;;;18.90;99.90;;;;;;4969042;28;20183;-88
2023/08/02 08:21:12;;;;;;;3.90;2.20;;;19.10;99.90;;;;;;4974614;28;20214;-89
2023/08/02 08:23:40;;;;;;;2.70;2.20;;;19.30;99.90;;;;;;4976666;28;20233;-88
2023/08/02 08:26:12;;;;;;;2.92;2.33;;;19.40;99.90;;;;;;4975658;28;20190;-90
2023/08/02 08:28:38;;;;;;;3.45;2.00;;;19.60;99.90;;;;;;4959923;28;20174;-90
2023/08/02 08:31:04;;;;;;;3.00;2.30;;;19.70;99.90;;;;;;4971808;28;20182;-90
2023/08/02 08:33:31;;;;;;;5.20;2.30;;;19.60;99.90;;;;;;4958637;28;20197;-88
2023/08/02 08:35:57;;;;;;;4.95;1.88;;;19.60;99.90;;;;;;4968847;28;20557;-89
2023/08/02 08:38:23;;;;;;;2.72;2.08;;;19.70;99.90;;;;;;4963923;28;20179;-88
2023/08/02 08:40:51;;;;;;;4.72;2.17;;;19.70;99.90;;;;;;4960403;28;20187;-88
2023/08/02 08:43:17;;;;;;;2.53;2.30;;;19.70;99.90;;;;;;4954883;28;20207;-90
2023/08/02 08:45:44;;;;;;;4.35;2.70;;;19.80;99.90;;;;;;4974777;28;20326;-89
2023/08/02 08:48:10;;;;;;;2.22;2.03;;;19.90;99.90;;;;;;4959489;28;20514;-89
2023/08/02 08:50:40;;;;;;;2.78;2.28;;;20.00;99.90;;;;;;4958234;28;20194;-91
2023/08/02 08:53:09;;;;;;;2.47;2.20;;;19.90;99.90;;;;;;4974899;28;20534;-88
2023/08/02 08:55:36;;;;;;;5.90;2.00;;;19.90;99.90;;;;;;4960661;28;20214;-89
2023/08/02 08:58:02;;;;;;;2.70;2.03;;;19.90;99.90;;;;;;4967127;28;20186;-88
2023/08/02 09:00:31;;;;;;;2.75;2.20;;;20.00;99.90;;;;;;4947442;28;20539;-90
2023/08/02 09:03:01;;;;;;;2.95;1.90;;;20.10;99.90;;;;;;4959859;28;20211;-89
2023/08/02 09:05:30;;;;;;;2.65;2.10;;;20.20;99.90;;;;;;4965096;28;20175;-88
2023/08/02 09:07:58;;;;;;;2.10;1.83;;;20.40;99.90;;;;;;4960182;28;20175;-88
2023/08/02 09:10:24;;;;;;;2.22;1.60;;;20.80;99.90;;;;;;4964578;28;20183;-89
2023/08/02 09:12:49;;;;;;;5.20;1.83;;;20.60;99.90;;;;;;4947543;28;20595;-89
2023/08/02 09:15:15;;;;;;;2.50;1.90;;;20.90;99.90;;;;;;4959151;28;20190;-89
2023/08/02 09:17:46;;;;;;;3.33;1.50;;;20.80;99.90;;;;;;4933039;29;20686;-89
2023/08/02 09:20:12;;;;;;;1.50;1.38;;;20.70;99.90;;;;;;4956285;29;20278;-88
2023/08/02 09:22:38;;;;;;;1.70;1.52;;;20.80;99.90;;;;;;4939979;29;20222;-89
2023/08/02 09:25:07;;;;;;;3.83;1.45;;;21.00;99.90;;;;;;4940283;29;20187;-88
2023/08/02 09:27:34;;;;;;;2.63;1.63;;;21.20;99.90;;;;;;4939711;29;20218;-90
2023/08/02 09:30:00;;;;;;;2.05;1.83;;;21.30;99.90;;;;;;4954474;29;20175;-90
2023/08/02 09:32:26;;;;;;;2.05;1.60;;;21.50;99.90;;;;;;4937680;29;20179;-91
2023/08/02 09:34:55;;;;;;;1.35;1.20;;;21.70;99.90;;;;;;4958528;29;20656;-91
2023/08/02 09:37:35;;;;;;;1.90;1.45;;;21.90;99.90;;;;;;4965506;29;20242;-90
2023/08/02 09:40:09;;;;;;;2.63;1.58;;;21.80;99.90;;;;;;4967282;29;20242;-90
2023/08/02 09:42:34;;;;;;;2.25;1.65;;;22.50;99.90;;;;;;4966658;29;20215;-90
2023/08/02 09:45:04;;;;;;;1.20;1.08;;;22.40;99.90;;;;;;4970148;28;20183;-91
2023/08/02 09:47:30;;;;;;;2.60;1.50;;;22.50;99.90;;;;;;4986135;28;20214;-91
2023/08/02 09:50:10;;;;;;;1.33;1.23;;;22.60;99.90;;;;;;4979047;28;20414;-89
2023/08/02 09:52:38;;;;;;;1.67;1.25;;;22.70;99.90;;;;;;4988287;28;20237;-92
2023/08/02 09:55:05;;;;;;;4.85;1.58;;;22.70;99.90;;;;;;4999273;28;20185;-90
2023/08/02 09:57:32;;;;;;;1.42;1.33;;;22.50;99.90;;;;;;4990778;28;20189;-90
2023/08/02 10:00:10;;;;;;;3.17;1.67;;;22.10;99.90;;;;;;4965467;28;20190;-88
2023/08/02 10:02:36;;;;;;;2.13;1.63;;;22.20;99.90;;;;;;4981343;28;20201;-91
2023/08/02 10:05:06;;;;;;;1.25;1.13;;;22.40;99.90;;;;;;4991993;28;20194;-88
2023/08/02 10:07:36;;;;;;;3.30;1.52;;;22.40;99.90;;;;;;4995595;28;20179;-89
2023/08/02 10:10:06;;;;;;;2.85;1.42;;;22.70;99.90;;;;;;4998127;28;20190;-90
2023/08/02 10:12:35;;;;;;;1.10;1.00;;;22.70;99.90;;;;;;4997025;28;20255;-90
2023/08/02 10:15:04;;;;;;;1.27;1.10;;;22.40;99.90;;;;;;4987343;28;20177;-89
2023/08/02 10:17:31;;;;;;;1.38;1.05;;;22.70;99.90;;;;;;4967640;28;20197;-90
2023/08/02 10:19:59;;;;;;;1.55;1.20;;;22.80;99.90;;;;;;4985250;28;20269;-89
2023/08/02 10:22:27;;;;;;;3.25;1.30;;;22.60;99.90;;;;;;4959883;28;20189;-89
2023/08/02 10:24:53;;;;;;;1.20;1.13;;;21.60;99.90;;;;;;4951839;28;20697;-89
2023/08/02 10:27:20;;;;;;;2.00;1.60;;;23.50;99.90;;;;;;4957431;28;20275;-90
2023/08/02 10:29:47;;;;;;;1.40;1.30;;;22.80;99.90;;;;;;4957057;28;20179;-89
2023/08/02 10:32:16;;;;;;;1.95;1.30;;;22.80;99.90;;;;;;4970858;28;20175;-90
2023/08/02 10:34:43;;;;;;;1.90;1.10;;;22.90;99.90;;;;;;4975035;28;20177;-89
2023/08/02 10:37:09;;;;;;;1.70;1.60;;;22.80;99.90;;;;;;4973660;28;20190;-90
2023/08/02 10:39:54;;;;;;;1.58;1.40;;;23.10;99.90;;;;;;4957452;28;20179;-90
2023/08/02 10:42:22;;;;;;;2.47;1.60;;;23.00;99.90;;;;;;4973301;28;20184;-90
2023/08/02 10:44:57;;;;;;;2.50;1.50;;;23.20;99.90;;;;;;4973015;28;20710;-90
2023/08/02 10:47:24;;;;;;;2.40;1.38;;;23.50;99.90;;;;;;4973276;28;20558;-91
2023/08/02 10:49:51;;;;;;;2.10;1.60;;;24.00;99.90;;;;;;4967100;28;20229;-91
2023/08/02 10:52:30;;;;;;;1.83;1.55;;;23.70;99.90;;;;;;4972930;28;20226;-90
2023/08/02 10:55:16;;;;;;;1.55;1.27;;;23.40;99.90;;;;;;4973039;28;20213;-89
2023/08/02 10:57:54;;;;;;;1.45;1.08;;;23.10;97.80;;;;;;4973938;28;20213;-92
2023/08/02 11:00:32;;;;;;;1.25;1.05;;;23.60;99.50;;;;;;4973207;28;20639;-89
2023/08/02 11:02:58;;;;;;;2.22;1.48;;;;;;;;;;4972904;28;20545;-90
2023/08/02 11:05:42;;;;;;;1.40;1.25;;;23.40;97.30;;;;;;4969698;28;20627;-92
2023/08/02 11:08:11;;;;;;;1.52;1.25;;;23.50;99.90;;;;;;4967623;28;20206;-92
2023/08/02 11:10:54;;;;;;;1.27;1.13;;;23.10;99.40;;;;;;4957297;28;20190;-92
2023/08/02 11:13:22;;;;;;;1.67;1.30;;;23.00;98.30;;;;;;4973543;28;20183;-90
2023/08/02 11:16:02;;;;;;;1.50;1.40;;;23.00;97.60;;;;;;4973130;28;20186;-90
2023/08/02 11:18:32;;;;;;;1.40;1.10;;;23.20;99.90;;;;;;4973272;28;20233;-90
2023/08/02 11:21:12;;;;;;;1.42;1.15;;;23.70;98.50;;;;;;4967504;28;20202;-91
2023/08/02 11:23:38;;;;;;;1.40;1.20;;;23.70;95.10;;;;;;4965308;28;20233;-90
2023/08/02 11:26:11;;;;;;;1.73;1.30;;;23.50;92.50;;;;;;4972691;28;20190;-90
2023/08/02 11:28:45;;;;;;;1.40;1.20;;;23.40;93.50;;;;;;4965131;28;20201;-90
2023/08/02 11:31:12;;;;;;;1.70;1.30;;;23.40;93.70;;;;;;4973322;28;20189;-91
2023/08/02 11:33:39;;;;;;;1.67;1.38;;;23.60;93.80;;;;;;4972765;28;20249;-91
2023/08/02 11:36:05;;;;;;;1.95;1.42;;;23.00;91.10;;;;;;4971999;28;20189;-90
2023/08/02 11:38:32;;;;;;;3.38;1.40;;;23.80;92.20;;;;;;4972287;28;20214;-90
2023/08/02 11:40:58;;;;;;;3.50;1.33;;;21.40;90.80;;;;;;4967927;28;20171;-90
2023/08/02 11:43:37;;;;;;;1.65;1.20;;;24.00;89.90;;;;;;4972672;28;20313;-92
2023/08/02 11:46:26;;;;;;;2.05;1.25;;;24.20;87.20;;;;;;4973850;28;20175;-90
2023/08/02 11:48:52;;;;;;;2.05;1.30;;;24.30;83.50;;;;;;4973086;28;20274;-91
2023/08/02 11:51:22;;;;;;;1.20;1.10;;;24.40;82.80;;;;;;4970533;28;20241;-90
2023/08/02 11:53:54;;;;;;;1.40;1.10;;;24.30;84.00;;;;;;4953490;28;20223;-90
2023/08/02 11:56:21;;;;;;;1.10;0.85;;;24.50;86.10;;;;;;4956709;28;20214;-90
2023/08/02 11:58:48;;;;;;;2.10;1.05;;;24.80;81.20;;;;;;4966598;28;20187;-91
2023/08/02 12:01:14;;;;;;;1.83;1.23;;;24.80;78.70;;;;;;4957380;29;20190;-90
2023/08/02 12:03:52;;;;;;;2.17;1.30;;;24.80;82.80;;;;;;4925769;29;20214;-91
2023/08/02 12:06:18;;;;;;;2.65;1.30;;;24.70;80.20;;;;;;4959163;29;20171;-88
2023/08/02 12:08:54;;;;;;;2.47;1.40;;;24.90;81.50;;;;;;4947005;28;20202;-90
2023/08/02 12:11:21;;;;;;;2.08;1.55;;;25.10;78.80;;;;;;4976964;28;20174;-89
2023/08/02 12:13:46;;;;;;;1.00;0.90;;;25.20;79.50;;;;;;4960515;28;20190;-89
2023/08/02 12:16:13;;;;;;;1.92;1.38;;;25.10;78.70;;;;;;4977659;28;20194;-90
2023/08/02 12:18:56;;;;;;;1.30;1.00;;;25.10;79.50;;;;;;4978141;28;20252;-88
2023/08/02 12:21:23;;;;;;;1.55;1.38;;;25.00;78.40;;;;;;4962035;28;20237;-89
2023/08/02 12:23:49;;;;;;;1.90;1.20;;;25.00;80.00;;;;;;4960494;28;20218;-89
2023/08/02 12:26:32;;;;;;;2.63;1.67;;;25.20;77.00;;;;;;4959994;28;20190;-89
2023/08/02 12:28:59;;;;;;;1.30;0.93;;;25.30;80.10;;;;;;4976146;28;20723;-90
2023/08/02 12:31:25;;;;;;;2.72;1.55;;;25.30;77.40;;;;;;4977397;28;20269;-88
2023/08/02 12:33:50;;;;;;;2.92;0.90;;;24.00;75.60;;;;;;4976424;28;20281;-89
2023/08/02 12:36:27;;;;;;;2.22;1.00;;;25.20;76.70;;;;;;4959610;28;20257;-90
2023/08/02 12:38:54;;;;;;;1.05;0.90;;;25.30;77.20;;;;;;4976627;28;20268;-90
2023/08/02 12:41:21;;;;;;;1.92;0.90;;;;;;;;;;4975180;28;20529;-88
2023/08/02 12:43:46;;;;;;;1.75;1.38;;;25.30;72.70;;;;;;4959592;28;20214;-87
2023/08/02 12:46:13;;;;;;;1.63;1.10;;;25.20;74.10;;;;;;4943102;28;20187;-89
2023/08/02 12:48:39;;;;;;;2.70;1.83;;;25.10;75.00;;;;;;4975166;28;20190;-88